Etihad Airways Virtual Airport Information Service

Montreal / Pierre Elliott Trudeau International Airport

ICAO: CYUL Country: CA
Latitude: 45.4706 Longitude: -73.7408
Latest Arrival : ETC142 (OMAA-CYUL) Latest Departure : ETC143 (CYUL-OMAA)


WX CaptureLIVE
Data provided by noaa.gov | Recorded at 18:49:58

METAR : CYUL 081800Z VRB03KT 30SM SCT120 BKN250 08/M07 A2964 RMK AC3CI4 SLP040

TAF : CYUL 081739Z 0818/0918 06006KT P6SM BKN160 BKN250 FM082200 05008KT P6SM OVC080 FM090400 05008KT P6SM OVC040 FM091100 05012KT P6SM OVC030 FM091300 03008KT P6SM -RA OVC025 TEMPO 0913/0915 5SM -RA BR OVC020 FM091500 03012KT 2SM -SHRA BR OVC003 RMK NXT FCST BY 082100Z


Runway Data for CYUL
Data provided by openaviationdata.com

Runway ID Mag Var Hdg Length Elevation Surface ILS Freq ILS Id ILS Slope

Montreal / Pierre Elliott Trudeau International Airport, CA
Use only for reference purposes